Time;durP1;ratioP1;P1;durP2;ratioP2;P2;SDS_P1;SDS_P2;PMS_P1;PMS_P2;Temp;Humidity;BMP_temperature;BMP_pressure;BME280_temperature;BME280_humidity;BME280_pressure;Samples;Min_cycle;Max_cycle;Signal;HPM_P1;HPM_P2
2023/03/29 00:00:36;;;;;;;1.77;1.63;;;;;;;6.24;98.84;98560.88;5052012;28;20220;-77
2023/03/29 00:03:04;;;;;;;3.87;1.67;;;;;;;6.24;98.67;98550.38;5052276;28;20236;-76
2023/03/29 00:05:32;;;;;;;1.90;1.67;;;;;;;6.26;99.13;98551.19;5052418;28;20219;-77
2023/03/29 00:08:00;;;;;;;1.90;1.60;;;;;;;6.23;99.61;98548.69;5052109;28;20215;-77
2023/03/29 00:10:27;;;;;;;2.43;1.70;;;;;;;6.26;99.34;98543.31;5051971;28;20561;-76
2023/03/29 00:12:54;;;;;;;1.50;1.40;;;;;;;6.25;99.21;98539.00;5052107;28;20211;-77
2023/03/29 00:15:21;;;;;;;2.57;1.83;;;;;;;6.22;100.00;98536.47;5051864;28;20211;-77
2023/03/29 00:17:47;;;;;;;2.60;1.57;;;;;;;6.21;99.79;98529.53;5052220;28;20212;-77
2023/03/29 00:20:16;;;;;;;1.97;1.60;;;;;;;6.22;99.67;98528.63;5051839;28;20208;-74
2023/03/29 00:22:45;;;;;;;2.50;1.80;;;;;;;6.21;99.76;98532.16;5051899;28;20285;-76
2023/03/29 00:25:12;;;;;;;2.80;2.20;;;;;;;6.17;99.86;98522.72;5051882;28;20215;-77
2023/03/29 00:27:40;;;;;;;3.60;2.03;;;;;;;6.17;100.00;98517.47;5051729;28;20215;-77
2023/03/29 00:30:08;;;;;;;2.57;1.70;;;;;;;6.16;100.00;98518.41;5051186;28;20228;-77
2023/03/29 00:32:35;;;;;;;2.90;2.03;;;;;;;6.13;100.00;98526.41;5051695;28;20211;-75
2023/03/29 00:35:03;;;;;;;3.40;1.70;;;;;;;6.13;100.00;98515.94;5051864;28;20219;-77
2023/03/29 00:37:32;;;;;;;3.13;1.60;;;;;;;6.10;100.00;98518.66;5051718;28;20866;-77
2023/03/29 00:39:59;;;;;;;1.90;1.57;;;;;;;6.10;100.00;98521.28;5051168;28;20228;-75
2023/03/29 00:42:26;;;;;;;2.53;2.00;;;;;;;6.13;100.00;98521.19;5051363;28;20230;-75
2023/03/29 00:45:03;;;;;;;2.80;1.90;;;;;;;6.11;100.00;98517.75;5051624;28;20211;-77
2023/03/29 00:47:34;;;;;;;2.10;1.90;;;;;;;6.10;100.00;98517.84;5051537;28;20204;-77
2023/03/29 00:50:08;;;;;;;2.90;2.33;;;;;;;6.07;100.00;98520.59;5051043;28;20686;-76
2023/03/29 00:52:37;;;;;;;3.20;2.20;;;;;;;6.19;100.00;98510.41;5051450;28;20211;-75
2023/03/29 00:55:11;;;;;;;2.20;2.00;;;;;;;6.28;100.00;98509.97;5051234;28;20295;-75
2023/03/29 00:57:40;;;;;;;2.07;1.70;;;;;;;6.20;100.00;98504.22;5051018;28;20297;-77
2023/03/29 01:00:09;;;;;;;2.47;2.23;;;;;;;6.11;100.00;98507.25;5049762;28;20319;-77
2023/03/29 01:02:38;;;;;;;5.13;2.30;;;;;;;6.09;100.00;98503.00;5048409;28;20275;-77
2023/03/29 01:05:08;;;;;;;3.03;2.00;;;;;;;6.09;100.00;98495.97;5051129;28;20210;-76
2023/03/29 01:07:46;;;;;;;2.37;2.17;;;;;;;6.06;100.00;98492.66;5051104;28;20626;-75
2023/03/29 01:10:18;;;;;;;3.43;2.20;;;;;;;6.08;100.00;98486.41;5050903;28;20771;-77
2023/03/29 01:12:48;;;;;;;2.33;2.13;;;;;;;6.07;100.00;98481.22;5051350;28;20586;-76
2023/03/29 01:15:19;;;;;;;2.37;2.10;;;;;;;6.04;100.00;98474.34;5051093;28;20235;-77
2023/03/29 01:17:49;;;;;;;3.93;2.50;;;;;;;6.10;100.00;98475.84;5050985;28;20694;-75
2023/03/29 01:20:21;;;;;;;3.30;2.13;;;;;;;6.10;100.00;98473.22;5050833;28;20207;-77
2023/03/29 01:23:14;;;;;;;2.77;2.47;;;;;;;6.08;100.00;98470.66;5051176;28;20253;-77
2023/03/29 01:25:49;;;;;;;2.40;1.90;;;;;;;6.07;100.00;98474.22;5051058;28;20203;-76
2023/03/29 01:28:22;;;;;;;2.40;2.20;;;;;;;6.23;100.00;98454.19;5050719;28;20239;-76
2023/03/29 01:30:51;;;;;;;2.90;2.27;;;;;;;6.28;100.00;98454.84;5050984;28;20270;-78
2023/03/29 01:33:22;;;;;;;2.43;2.13;;;;;;;6.32;100.00;98451.16;5051011;28;20214;-78
2023/03/29 01:35:57;;;;;;;2.53;2.33;;;;;;;6.37;100.00;98448.31;5051139;28;20211;-77
2023/03/29 01:38:28;;;;;;;2.50;2.20;;;;;;;6.29;100.00;98448.66;5050705;28;20235;-78
2023/03/29 01:40:55;;;;;;;3.07;2.20;;;;;;;6.21;100.00;98434.19;5050585;28;20210;-75
2023/03/29 01:43:27;;;;;;;4.33;2.20;;;;;;;6.12;100.00;98435.47;5050910;28;20247;-76
2023/03/29 01:46:02;;;;;;;2.53;2.20;;;;;;;6.03;100.00;98438.53;5050966;28;20212;-76
2023/03/29 01:48:35;;;;;;;2.63;1.90;;;;;;;5.93;100.00;98418.88;5050760;28;20313;-76
2023/03/29 01:51:08;;;;;;;2.10;1.80;;;;;;;5.90;100.00;98421.66;5050529;28;20804;-78
2023/03/29 01:53:40;;;;;;;2.47;2.13;;;;;;;5.89;100.00;98412.09;5050970;28;20204;-75
2023/03/29 01:56:10;;;;;;;3.63;2.20;;;;;;;5.94;100.00;98407.50;5050999;28;20212;-77
2023/03/29 01:58:42;;;;;;;3.17;2.17;;;;;;;5.92;100.00;98404.06;5050642;28;20236;-75
2023/03/29 02:01:11;;;;;;;3.63;2.30;;;;;;;5.91;100.00;98405.00;5050349;28;20686;-76
2023/03/29 02:03:42;;;;;;;2.53;1.90;;;;;;;5.82;100.00;98405.44;5050342;28;20235;-75
2023/03/29 02:06:11;;;;;;;3.23;2.27;;;;;;;5.77;100.00;98401.28;5050682;28;20221;-76
2023/03/29 02:08:41;;;;;;;2.20;2.00;;;;;;;5.76;100.00;98395.19;5051063;28;20232;-75
2023/03/29 02:11:08;;;;;;;3.83;2.10;;;;;;;5.94;100.00;98381.28;5054353;28;20216;-76
2023/03/29 02:13:35;;;;;;;2.77;2.30;;;;;;;6.06;100.00;98388.56;5054507;28;20299;-77
2023/03/29 02:16:04;;;;;;;2.70;2.17;;;;;;;5.97;100.00;98382.88;5054319;28;20210;-77
2023/03/29 02:18:31;;;;;;;4.17;2.23;;;;;;;5.98;100.00;98390.69;5054447;28;20587;-78
2023/03/29 02:20:58;;;;;;;2.83;2.63;;;;;;;6.02;100.00;98397.50;5054181;28;20208;-75
2023/03/29 02:23:32;;;;;;;4.90;2.57;;;;;;;5.98;100.00;98384.59;5054261;28;20236;-75
2023/03/29 02:26:00;;;;;;;2.90;2.47;;;;;;;6.09;100.00;98384.91;5054148;28;20208;-76
2023/03/29 02:28:29;;;;;;;3.23;2.13;;;;;;;6.06;100.00;98388.56;5057799;28;20223;-78
2023/03/29 02:31:01;;;;;;;3.13;2.10;;;;;;;5.90;100.00;98386.69;5057627;28;20208;-77
2023/03/29 02:33:36;;;;;;;3.53;2.40;;;;;;;5.80;100.00;98386.28;5057272;28;20249;-76
2023/03/29 02:36:08;;;;;;;2.13;1.93;;;;;;;5.69;100.00;98385.06;5054025;28;20207;-76
2023/03/29 02:38:37;;;;;;;2.23;1.87;;;;;;;5.65;100.00;98384.34;5053840;28;20234;-76
2023/03/29 02:41:04;;;;;;;3.27;2.10;;;;;;;5.60;100.00;98388.94;5053539;28;20247;-75
2023/03/29 02:43:34;;;;;;;3.37;2.03;;;;;;;5.62;100.00;98376.59;5053705;28;20224;-75
2023/03/29 02:46:02;;;;;;;3.53;2.13;;;;;;;5.74;100.00;98354.22;5053905;28;20211;-75
2023/03/29 02:48:32;;;;;;;3.10;2.40;;;;;;;5.60;100.00;98354.84;5053753;28;20228;-77
2023/03/29 02:51:03;;;;;;;2.23;2.03;;;;;;;5.45;100.00;98346.84;5053378;28;20211;-75
2023/03/29 02:53:34;;;;;;;2.57;2.37;;;;;;;5.36;100.00;98337.63;5053735;28;20583;-77
2023/03/29 02:56:02;;;;;;;2.43;1.93;;;;;;;5.29;100.00;98328.34;5053529;28;20300;-77
2023/03/29 02:58:30;;;;;;;3.17;2.30;;;;;;;5.36;100.00;98328.91;5053621;28;20300;-77
2023/03/29 03:01:01;;;;;;;3.30;2.37;;;;;;;5.32;100.00;98324.75;5053402;28;20592;-76
2023/03/29 03:03:27;;;;;;;4.57;2.40;;;;;;;5.39;100.00;98329.63;5053487;28;20595;-77
2023/03/29 03:05:55;;;;;;;3.10;2.30;;;;;;;5.32;100.00;98320.31;5053464;28;20631;-77
2023/03/29 03:08:22;;;;;;;3.57;2.70;;;;;;;5.51;100.00;98308.06;5053256;28;20235;-76
2023/03/29 03:10:48;;;;;;;3.63;3.00;;;;;;;5.41;100.00;98309.44;5053024;28;20215;-77
2023/03/29 03:13:15;;;;;;;3.27;2.47;;;;;;;5.37;100.00;98315.75;5053284;28;20238;-76
2023/03/29 03:15:42;;;;;;;3.30;2.70;;;;;;;5.36;100.00;98319.28;5053421;28;20217;-75
2023/03/29 03:18:09;;;;;;;4.30;2.40;;;;;;;5.33;100.00;98316.81;5053068;28;20230;-77
2023/03/29 03:20:36;;;;;;;3.57;2.50;;;;;;;5.28;100.00;98313.53;5052347;28;20361;-76
2023/03/29 03:23:04;;;;;;;3.17;2.67;;;;;;;5.28;100.00;98326.66;5053198;28;20595;-76
2023/03/29 03:25:30;;;;;;;3.73;2.70;;;;;;;5.23;100.00;98331.25;5053393;28;20212;-75
2023/03/29 03:27:57;;;;;;;3.20;2.77;;;;;;;5.29;100.00;98310.00;5052910;28;20769;-78
2023/03/29 03:30:24;;;;;;;7.83;3.13;;;;;;;5.36;100.00;98321.91;5052742;28;20228;-77
2023/03/29 03:32:50;;;;;;;4.80;3.07;;;;;;;5.41;100.00;98319.06;5052979;28;20712;-77
2023/03/29 03:35:17;;;;;;;3.27;2.80;;;;;;;5.45;100.00;98325.88;5052864;28;20584;-77
2023/03/29 03:37:44;;;;;;;3.13;2.43;;;;;;;5.54;100.00;98315.81;5052670;28;20215;-77
2023/03/29 03:40:12;;;;;;;3.57;2.70;;;;;;;5.60;100.00;98315.53;5052295;28;20299;-77
2023/03/29 03:42:39;;;;;;;3.57;2.80;;;;;;;5.67;100.00;98305.63;5052735;28;20235;-77
2023/03/29 03:45:08;;;;;;;4.77;3.00;;;;;;;5.73;100.00;98307.97;5052680;28;20560;-77
2023/03/29 03:47:36;;;;;;;3.67;2.87;;;;;;;5.79;100.00;98311.13;5052717;28;20205;-77
2023/03/29 03:50:02;;;;;;;3.93;2.87;;;;;;;5.82;100.00;98313.66;5052102;28;20283;-77
2023/03/29 03:52:29;;;;;;;5.20;2.60;;;;;;;5.86;100.00;98315.19;5052718;28;20204;-77
2023/03/29 03:54:55;;;;;;;3.53;2.60;;;;;;;5.91;100.00;98305.31;5052729;28;20217;-78
2023/03/29 03:57:24;;;;;;;3.73;2.90;;;;;;;5.96;100.00;98303.34;5052851;28;20215;-77
2023/03/29 03:59:51;;;;;;;3.40;2.70;;;;;;;6.03;100.00;98304.75;5052504;28;20313;-77
2023/03/29 04:02:19;;;;;;;3.10;2.47;;;;;;;6.10;100.00;98300.06;5052608;28;20208;-77
2023/03/29 04:04:45;;;;;;;4.47;2.67;;;;;;;6.10;100.00;98306.13;5053043;28;20632;-77
2023/03/29 04:07:13;;;;;;;3.47;2.43;;;;;;;6.20;100.00;98314.41;5052523;28;20208;-77
2023/03/29 04:09:39;;;;;;;2.63;1.87;;;;;;;6.18;100.00;98314.47;5051879;28;20270;-77
2023/03/29 04:12:06;;;;;;;3.23;2.33;;;;;;;6.16;100.00;98311.09;5052206;28;20610;-76
2023/03/29 04:14:34;;;;;;;3.03;2.27;;;;;;;6.19;100.00;98304.84;5052499;28;20216;-77
2023/03/29 04:17:01;;;;;;;3.27;2.30;;;;;;;6.19;100.00;98308.31;5052019;28;20236;-76
2023/03/29 04:19:27;;;;;;;3.90;2.27;;;;;;;6.22;100.00;98320.44;5051836;28;20229;-77
2023/03/29 04:21:54;;;;;;;2.63;2.13;;;;;;;6.22;100.00;98309.97;5052049;28;20223;-77
2023/03/29 04:24:20;;;;;;;2.63;2.37;;;;;;;6.26;100.00;98317.59;5051989;28;20265;-77
2023/03/29 04:26:47;;;;;;;3.97;2.30;;;;;;;6.30;100.00;98319.13;5051797;28;20210;-77
2023/03/29 04:29:14;;;;;;;3.53;2.57;;;;;;;6.30;100.00;98316.50;5051420;28;20306;-77
2023/03/29 04:31:41;;;;;;;5.60;2.33;;;;;;;6.31;100.00;98312.13;5051453;28;20684;-77
2023/03/29 04:34:08;;;;;;;2.67;1.97;;;;;;;6.34;100.00;98319.84;5051922;28;20235;-77
2023/03/29 04:36:34;;;;;;;2.97;2.10;;;;;;;6.35;100.00;98311.88;5051938;28;20706;-77
2023/03/29 04:39:01;;;;;;;4.27;2.30;;;;;;;6.43;99.23;98315.00;5051544;28;20231;-77
2023/03/29 04:41:27;;;;;;;4.67;2.30;;;;;;;6.42;99.10;98308.00;5051497;28;20212;-76
2023/03/29 04:43:54;;;;;;;2.23;1.80;;;;;;;6.45;99.49;98307.88;5051477;28;20228;-75
2023/03/29 04:46:24;;;;;;;2.60;1.80;;;;;;;6.47;99.55;98311.25;5051463;28;20298;-77
2023/03/29 04:48:52;;;;;;;2.13;1.93;;;;;;;6.50;98.70;98315.53;5051652;28;20315;-76
2023/03/29 04:51:20;;;;;;;2.37;1.73;;;;;;;6.51;98.54;98312.81;5051377;28;20219;-77
2023/03/29 04:53:48;;;;;;;1.93;1.73;;;;;;;6.56;98.75;98309.97;5051376;28;20627;-76
2023/03/29 04:56:15;;;;;;;2.40;1.57;;;;;;;6.58;98.00;98311.59;5051394;28;20217;-77
2023/03/29 04:58:43;;;;;;;3.47;2.10;;;;;;;6.58;97.47;98314.22;5051210;28;20235;-77
2023/03/29 05:01:09;;;;;;;1.80;1.50;;;;;;;6.60;96.89;98314.97;5051290;28;20209;-77
2023/03/29 05:03:36;;;;;;;2.50;1.77;;;;;;;6.63;96.45;98306.09;5051107;28;20249;-77
2023/03/29 05:06:05;;;;;;;2.70;1.80;;;;;;;6.66;96.52;98312.03;5051346;28;20213;-76
2023/03/29 05:08:33;;;;;;;1.77;1.50;;;;;;;6.71;95.39;98311.81;5051158;28;20455;-75
2023/03/29 05:10:59;;;;;;;2.60;1.70;;;;;;;6.72;94.98;98316.97;5050789;28;20296;-75
2023/03/29 05:13:25;;;;;;;2.07;1.60;;;;;;;6.70;95.60;98308.34;5051118;28;20207;-76
2023/03/29 05:15:52;;;;;;;1.50;1.40;;;;;;;6.70;95.50;98310.97;5051086;28;20213;-76
2023/03/29 05:18:18;;;;;;;3.03;1.50;;;;;;;6.73;94.62;98308.16;5050953;28;20752;-77
2023/03/29 05:20:46;;;;;;;1.50;1.40;;;;;;;6.77;93.96;98304.47;5050760;28;20293;-77
2023/03/29 05:23:13;;;;;;;3.00;1.77;;;;;;;6.77;93.88;98303.63;5050926;28;20282;-76
2023/03/29 05:25:40;;;;;;;2.80;2.07;;;;;;;6.80;93.38;98304.31;5050890;28;20671;-76
2023/03/29 05:28:07;;;;;;;1.93;1.63;;;;;;;6.82;93.16;98310.34;5051255;28;20710;-77
2023/03/29 05:30:33;;;;;;;2.73;1.60;;;;;;;6.86;93.10;98303.16;5051078;28;20251;-77
2023/03/29 05:33:01;;;;;;;2.60;1.50;;;;;;;6.90;92.38;98292.38;5051058;28;20204;-75
2023/03/29 05:35:28;;;;;;;1.70;1.50;;;;;;;6.94;92.15;98304.44;5050940;28;20213;-75
2023/03/29 05:37:55;;;;;;;2.03;1.40;;;;;;;7.01;91.87;98303.19;5050598;28;20210;-80
2023/03/29 05:40:25;;;;;;;2.40;1.80;;;;;;;7.02;90.43;98299.63;5081696;22;20752;-76
2023/03/29 05:42:51;;;;;;;1.70;1.60;;;;;;;7.04;90.77;98294.31;5071363;28;20319;-77
2023/03/29 05:45:18;;;;;;;1.90;1.37;;;;;;;7.09;90.58;98294.91;5074805;28;20261;-76
2023/03/29 05:47:45;;;;;;;2.03;1.40;;;;;;;7.13;89.74;98292.03;5074950;28;20688;-77
2023/03/29 05:50:11;;;;;;;3.40;1.50;;;;;;;7.15;89.33;98292.78;5074407;28;20227;-76
2023/03/29 05:52:41;;;;;;;2.43;1.60;;;;;;;7.23;89.21;98293.25;5074627;28;20592;-76
2023/03/29 05:55:09;;;;;;;1.37;1.27;;;;;;;7.24;88.72;98294.94;5074832;28;20213;-76
2023/03/29 05:57:37;;;;;;;1.50;1.23;;;;;;;7.32;88.13;98298.00;5074758;28;20215;-76
2023/03/29 06:00:13;;;;;;;4.17;1.60;;;;;;;7.31;86.88;98296.31;5074268;28;20250;-76
2023/03/29 06:02:40;;;;;;;2.57;1.40;;;;;;;7.34;85.91;98296.16;5074505;28;20203;-76
2023/03/29 06:05:07;;;;;;;2.00;1.50;;;;;;;7.42;85.48;98299.22;5074511;28;20582;-76
2023/03/29 06:07:34;;;;;;;2.73;1.10;;;;;;;7.50;83.75;98297.88;5074338;28;20625;-76
2023/03/29 06:10:01;;;;;;;2.27;1.40;;;;;;;7.55;82.79;98289.75;5073995;28;20237;-77
2023/03/29 06:12:28;;;;;;;1.97;1.30;;;;;;;7.57;83.01;98293.97;5074796;28;20205;-76
2023/03/29 06:15:02;;;;;;;1.97;1.13;;;;;;;7.59;82.59;98292.09;5074526;28;20203;-77
2023/03/29 06:17:29;;;;;;;1.57;1.40;;;;;;;7.62;82.02;98291.09;5074362;28;20274;-77
2023/03/29 06:19:56;;;;;;;1.30;1.20;;;;;;;7.68;82.29;98299.50;5073863;28;20228;-77
2023/03/29 06:22:23;;;;;;;2.33;1.40;;;;;;;7.71;82.08;98301.97;5074461;28;20207;-77
2023/03/29 06:24:49;;;;;;;2.60;1.50;;;;;;;7.72;82.53;98308.91;5074092;28;20233;-78
2023/03/29 06:27:16;;;;;;;3.23;1.90;;;;;;;7.85;80.88;98299.41;5074195;28;20310;-77
2023/03/29 06:29:43;;;;;;;2.60;2.00;;;;;;;7.94;78.56;98303.31;5073702;28;20708;-79
2023/03/29 06:32:11;;;;;;;3.63;2.20;;;;;;;7.94;78.86;98292.78;5074566;28;20710;-77
2023/03/29 06:34:37;;;;;;;3.23;1.87;;;;;;;7.86;79.96;98308.16;5074711;28;20300;-77
2023/03/29 06:37:04;;;;;;;3.47;2.00;;;;;;;7.87;80.51;98317.75;5074313;28;20218;-77
2023/03/29 06:39:31;;;;;;;3.57;2.20;;;;;;;7.88;81.03;98315.03;5072765;28;20238;-77
2023/03/29 06:41:58;;;;;;;4.03;2.10;;;;;;;7.88;80.65;98316.81;5071983;28;20201;-77
2023/03/29 06:44:27;;;;;;;3.37;2.03;;;;;;;7.88;81.30;98317.66;5074185;28;20230;-78
2023/03/29 06:46:53;;;;;;;4.50;2.23;;;;;;;7.93;80.91;98312.13;5074759;28;20205;-77
2023/03/29 06:49:21;;;;;;;4.07;2.67;;;;;;;7.96;80.82;98325.16;5070662;28;20254;-77
2023/03/29 06:51:48;;;;;;;5.73;2.40;;;;;;;8.04;81.13;98320.28;5072792;28;20208;-77
2023/03/29 06:54:15;;;;;;;3.50;2.40;;;;;;;8.16;81.79;98319.59;5073698;28;20259;-77
2023/03/29 06:56:41;;;;;;;5.47;2.80;;;;;;;8.35;79.87;98315.00;5072255;28;20210;-77
2023/03/29 06:59:08;;;;;;;3.23;2.10;;;;;;;8.55;77.11;98304.16;5070820;28;20731;-77
2023/03/29 07:01:34;;;;;;;3.33;2.03;;;;;;;8.52;76.38;98304.34;5073987;28;20222;-77
2023/03/29 07:04:03;;;;;;;3.40;1.80;;;;;;;8.66;75.52;98301.75;5073951;28;20229;-77
2023/03/29 07:06:31;;;;;;;3.73;1.60;;;;;;;8.76;72.56;98297.66;5070770;28;20211;-77
2023/03/29 07:09:00;;;;;;;5.03;2.30;;;;;;;8.81;72.64;98298.22;5071944;28;20231;-77
2023/03/29 07:11:27;;;;;;;2.93;2.00;;;;;;;8.93;70.91;98293.06;5073259;28;20217;-76
2023/03/29 07:13:54;;;;;;;5.17;1.90;;;;;;;8.84;71.36;98305.94;5073347;28;20221;-76
2023/03/29 07:16:21;;;;;;;2.97;2.00;;;;;;;8.93;71.72;98302.78;5073304;28;20222;-76
2023/03/29 07:18:47;;;;;;;3.93;2.27;;;;;;;8.93;71.39;98302.78;5072762;28;20324;-76
2023/03/29 07:21:14;;;;;;;2.37;2.10;;;;;;;8.91;71.92;98310.75;5073636;28;20218;-77
2023/03/29 07:23:42;;;;;;;4.43;1.90;;;;;;;8.94;72.92;98318.47;5073292;28;20240;-78
2023/03/29 07:26:09;;;;;;;3.67;1.90;;;;;;;8.97;74.07;98331.50;5073069;28;20215;-78
2023/03/29 07:28:38;;;;;;;2.30;1.70;;;;;;;9.01;75.21;98342.69;5071181;28;20243;-76
2023/03/29 07:31:05;;;;;;;2.10;1.83;;;;;;;9.04;75.97;98348.63;5069539;28;20212;-79
2023/03/29 07:33:32;;;;;;;3.20;2.10;;;;;;;9.14;76.29;98359.47;5070955;28;20491;-78
2023/03/29 07:35:59;;;;;;;2.30;1.83;;;;;;;9.12;77.39;98353.47;5071656;28;20210;-78
2023/03/29 07:38:25;;;;;;;3.03;1.87;;;;;;;9.17;78.21;98354.88;5069637;28;20243;-78
2023/03/29 07:40:55;;;;;;;4.03;2.27;;;;;;;9.22;80.12;98355.44;5069929;28;20250;-78
2023/03/29 07:43:22;;;;;;;2.50;2.10;;;;;;;9.21;81.28;98366.06;5070869;28;20200;-78
2023/03/29 07:45:49;;;;;;;6.43;2.00;;;;;;;9.22;81.83;98362.50;5072329;28;20227;-79
2023/03/29 07:48:16;;;;;;;3.47;2.30;;;;;;;9.26;81.07;98364.00;5070001;28;20511;-80
2023/03/29 07:50:43;;;;;;;2.37;1.80;;;;;;;9.31;79.41;98359.31;5071891;28;20221;-80
2023/03/29 07:53:10;;;;;;;2.53;1.97;;;;;;;9.35;75.37;98352.88;5072958;28;20206;-80
2023/03/29 07:55:36;;;;;;;2.23;2.03;;;;;;;9.39;75.67;98343.84;5070220;28;20205;-79
2023/03/29 07:58:04;;;;;;;4.37;2.30;;;;;;;9.51;77.02;98361.56;5070557;28;20214;-80
2023/03/29 08:00:31;;;;;;;3.85;2.22;;;;;;;9.57;77.49;98363.84;5072104;28;20446;-80
2023/03/29 08:02:58;;;;;;;2.47;2.00;;;;;;;9.64;77.57;98365.16;5071730;28;20741;-80
2023/03/29 08:05:24;;;;;;;4.47;2.07;;;;;;;9.68;77.95;98361.41;5071582;28;20257;-80
2023/03/29 08:07:51;;;;;;;2.40;1.90;;;;;;;9.75;78.20;98362.72;5071195;28;20628;-77
2023/03/29 08:10:19;;;;;;;2.63;1.80;;;;;;;9.82;78.00;98374.56;5068841;28;20257;-79
2023/03/29 08:12:48;;;;;;;4.57;2.30;;;;;;;9.88;78.86;98358.34;5071310;28;20227;-78
2023/03/29 08:15:16;;;;;;;3.30;2.13;;;;;;;9.94;79.30;98371.16;5071960;28;20209;-77
2023/03/29 08:17:42;;;;;;;2.90;2.40;;;;;;;10.13;79.57;98369.09;5069491;28;20199;-78
2023/03/29 08:20:11;;;;;;;3.20;2.37;;;;;;;10.34;79.66;98365.09;5068593;28;20234;-78
2023/03/29 08:22:39;;;;;;;3.30;2.23;;;;;;;10.47;78.96;98358.06;5071438;28;20208;-80
2023/03/29 08:25:06;;;;;;;3.93;2.30;;;;;;;10.58;77.61;98351.13;5071157;28;20229;-80
2023/03/29 08:27:33;;;;;;;4.03;2.20;;;;;;;10.68;76.11;98351.34;5068953;28;20295;-79
2023/03/29 08:30:00;;;;;;;3.15;2.30;;;;;;;10.86;75.03;98344.84;5070142;28;20430;-79
2023/03/29 08:32:28;;;;;;;3.53;2.07;;;;;;;10.96;74.77;98345.94;5072274;28;20326;-79
2023/03/29 08:34:54;;;;;;;3.23;2.23;;;;;;;11.02;74.50;98346.34;5069841;28;20201;-79
2023/03/29 08:37:23;;;;;;;2.43;1.90;;;;;;;11.01;73.94;98347.31;5069244;28;20720;-78
2023/03/29 08:39:49;;;;;;;3.70;2.17;;;;;;;11.10;72.23;98338.75;5071186;28;20232;-75
2023/03/29 08:42:41;;;;;;;3.50;2.17;;;;;;;11.09;71.87;98341.50;5072046;28;20710;-73
2023/03/29 08:45:16;;;;;;;3.27;2.40;;;;;;;10.99;72.65;98349.22;5075630;28;20240;-72
2023/03/29 08:47:52;;;;;;;3.70;2.40;;;;;;;10.84;73.85;98352.03;5071841;28;20604;-73
2023/03/29 08:50:20;;;;;;;3.20;2.00;;;;;;;10.81;73.55;98346.94;5071575;28;20231;-79
2023/03/29 08:52:53;;;;;;;5.47;2.27;;;;;;;10.76;72.71;98333.22;5070130;28;20302;-79
2023/03/29 08:55:30;;;;;;;2.33;2.00;;;;;;;10.76;73.23;98343.78;5070123;28;20290;-79
2023/03/29 08:57:59;;;;;;;2.30;1.90;;;;;;;10.85;72.16;98333.44;5070719;28;20325;-80
2023/03/29 09:00:34;;;;;;;4.00;2.00;;;;;;;10.93;71.68;98324.97;5069631;28;20235;-76
2023/03/29 09:03:10;;;;;;;3.73;2.20;;;;;;;11.11;70.58;98318.44;5071053;28;20260;-78
2023/03/29 09:05:43;;;;;;;4.07;2.30;;;;;;;11.22;71.94;98322.06;5071563;28;20271;-78
2023/03/29 09:08:14;;;;;;;5.27;2.50;;;;;;;11.37;71.14;98320.16;5071239;28;20230;-77
2023/03/29 09:10:46;;;;;;;5.27;2.57;;;;;;;11.62;72.01;98330.75;5070887;28;20232;-77
2023/03/29 09:13:27;;;;;;;5.03;2.80;;;;;;;11.82;71.61;98327.53;5071347;28;20619;-80
2023/03/29 09:16:02;;;;;;;3.63;2.40;;;;;;;11.94;71.20;98331.97;5071344;28;20243;-81
2023/03/29 09:18:39;;;;;;;4.70;3.00;;;;;;;12.12;71.29;98330.66;5070309;28;20441;-81
2023/03/29 09:21:15;;;;;;;5.40;2.40;;;;;;;12.23;71.52;98322.78;5070908;28;20207;-78
2023/03/29 09:24:06;;;;;;;6.00;2.20;;;;;;;12.39;68.65;98307.41;5071092;28;20308;-78
2023/03/29 09:26:38;;;;;;;3.33;2.60;;;;;;;12.47;68.61;98311.19;5071061;28;20211;-78
2023/03/29 09:29:22;;;;;;;4.17;1.90;;;;;;;12.64;69.10;98304.63;5070878;28;20242;-78
2023/03/29 09:31:50;;;;;;;4.00;2.00;;;;;;;12.95;66.94;98304.06;5064853;28;20222;-78
2023/03/29 09:34:22;;;;;;;10.67;2.40;;;;;;;13.05;65.24;98286.47;5066328;28;20239;-77
2023/03/29 09:36:52;;;;;;;5.63;2.03;;;;;;;13.09;63.80;98282.63;5052121;28;20211;-77
2023/03/29 09:39:21;;;;;;;3.43;1.90;;;;;;;13.23;63.91;98285.06;5053381;28;20706;-77
2023/03/29 09:41:54;;;;;;;2.20;1.80;;;;;;;13.34;60.60;98269.16;5058352;28;20210;-77
2023/03/29 09:44:26;;;;;;;3.17;2.00;;;;;;;13.44;61.37;98262.19;5067230;28;20227;-77
2023/03/29 09:46:56;;;;;;;2.43;1.80;;;;;;;13.54;60.28;98250.69;5068975;28;20211;-83
2023/03/29 09:49:28;;;;;;;2.37;1.50;;;;;;;13.72;61.11;98256.34;5068421;28;20234;-83
2023/03/29 09:51:59;;;;;;;3.83;1.60;;;;;;;13.89;61.46;98254.06;5068626;28;20219;-84
2023/03/29 09:54:26;;;;;;;2.10;1.80;;;;;;;13.91;60.68;98252.09;5068170;28;20200;-85
2023/03/29 09:56:52;;;;;;;2.83;1.70;;;;;;;13.99;58.34;98230.25;5068762;28;20215;-83
2023/03/29 09:59:19;;;;;;;3.83;1.53;;;;;;;13.95;57.36;98227.00;5068154;28;20228;-84
2023/03/29 10:01:45;;;;;;;1.90;1.47;;;;;;;13.95;57.90;98242.06;5067725;28;20219;-82
2023/03/29 10:04:13;;;;;;;3.27;1.80;;;;;;;14.12;58.79;98238.91;5060155;28;20236;-77
2023/03/29 10:06:52;;;;;;;2.30;1.70;;;;;;;14.22;58.72;98251.34;5054484;28;20207;-77
2023/03/29 10:09:21;;;;;;;2.37;1.40;;;;;;;14.26;57.85;98252.78;5056202;28;20235;-78
2023/03/29 10:11:53;;;;;;;2.87;1.67;;;;;;;14.30;57.07;98248.06;5056284;28;20219;-82
2023/03/29 10:14:22;;;;;;;2.33;1.50;;;;;;;14.43;56.89;98248.72;5055964;28;20204;-81
2023/03/29 10:16:56;;;;;;;1.63;1.50;;;;;;;14.66;56.04;98223.72;5067305;28;20727;-81
2023/03/29 10:19:26;;;;;;;3.83;1.87;;;;;;;14.80;55.25;98218.06;5068391;28;20339;-81
2023/03/29 10:21:55;;;;;;;3.53;1.50;;;;;;;14.82;52.98;98208.13;5055940;28;20213;-81
2023/03/29 10:24:23;;;;;;;1.97;1.77;;;;;;;14.89;54.70;98219.94;5055296;28;20234;-81
2023/03/29 10:26:54;;;;;;;2.70;1.67;;;;;;;14.76;53.27;98206.84;5063863;28;20205;-81
2023/03/29 10:29:21;;;;;;;2.07;1.50;;;;;;;14.61;53.66;98202.81;5066005;28;20352;-81
2023/03/29 10:31:48;;;;;;;2.70;1.93;;;;;;;14.66;54.03;98197.13;5059507;28;20221;-81
2023/03/29 10:34:16;;;;;;;4.00;1.80;;;;;;;14.69;54.60;98216.31;5044561;28;20253;-81
2023/03/29 10:36:52;;;;;;;3.80;1.90;;;;;;;14.68;56.30;98229.75;5051307;28;20199;-81
2023/03/29 10:39:20;;;;;;;1.60;1.30;;;;;;;14.72;55.21;98223.22;5060384;28;20705;-81
2023/03/29 10:41:51;;;;;;;2.23;1.60;;;;;;;14.78;55.06;98222.69;5065115;28;20209;-81
2023/03/29 10:44:31;;;;;;;3.93;1.70;;;;;;;14.87;54.42;98204.13;5060496;28;20628;-81
2023/03/29 10:47:07;;;;;;;2.63;1.73;;;;;;;14.85;54.24;98213.22;5061147;28;20219;-81
2023/03/29 10:49:40;;;;;;;2.30;1.90;;;;;;;14.87;54.38;98190.81;5058754;28;20237;-82
2023/03/29 10:52:08;;;;;;;1.87;1.60;;;;;;;14.83;54.13;98193.84;5060104;28;20211;-85
2023/03/29 10:54:36;;;;;;;2.53;1.80;;;;;;;14.98;54.66;98197.88;5059663;28;20297;-81
2023/03/29 10:57:08;;;;;;;2.73;1.70;;;;;;;14.97;53.29;98190.88;5058213;28;20267;-81
2023/03/29 10:59:45;;;;;;;3.60;1.60;;;;;;;15.02;51.67;98178.03;5059222;28;20841;-81
2023/03/29 11:02:37;;;;;;;3.70;1.70;;;;;;;15.44;53.62;98191.13;5060039;28;21188;-81
2023/03/29 11:05:24;;;;;;;1.70;1.50;;;;;;;15.57;51.81;98169.59;5059169;28;20318;-81
2023/03/29 11:08:18;;;;;;;2.50;1.47;;;;;;;15.54;49.62;98149.38;5059224;28;20281;-81
2023/03/29 11:10:55;;;;;;;3.33;1.73;;;;;;;15.68;51.61;98172.13;5059612;28;20221;-81
2023/03/29 11:13:31;;;;;;;4.77;1.90;;;;;;;15.78;51.24;98157.00;5064138;28;20210;-76
2023/03/29 11:16:09;;;;;;;3.47;1.90;;;;;;;15.93;51.81;98163.59;5060448;28;20214;-79
2023/03/29 11:19:11;;;;;;;3.97;1.70;;;;;;;16.05;51.78;98160.69;5061811;28;20237;-78
2023/03/29 11:21:46;;;;;;;3.40;1.67;;;;;;;15.98;50.68;98140.06;5059581;28;20207;-80
2023/03/29 11:24:26;;;;;;;1.97;1.50;;;;;;;16.02;51.91;98152.13;5059236;28;20598;-80
2023/03/29 11:27:04;;;;;;;2.97;1.40;;;;;;;16.14;52.01;98152.69;5059159;28;20202;-79
2023/03/29 11:29:37;;;;;;;2.73;1.43;;;;;;;16.32;51.49;98148.34;5059843;28;20230;-83
2023/03/29 11:32:09;;;;;;;2.50;1.70;;;;;;;16.48;51.21;98151.31;5060929;28;20291;-80
2023/03/29 11:34:47;;;;;;;2.80;1.77;;;;;;;16.43;49.05;98118.91;5049458;28;20219;-80
2023/03/29 11:37:22;;;;;;;2.43;1.43;;;;;;;16.51;49.22;98116.34;5047201;28;20722;-81
2023/03/29 11:40:03;;;;;;;1.97;1.40;;;;;;;16.49;49.34;98123.66;5073036;22;20234;-75
2023/03/29 11:42:35;;;;;;;2.60;1.50;;;;;;;16.46;49.41;98126.59;5069367;28;20213;-77
2023/03/29 11:45:04;;;;;;;2.67;1.70;;;;;;;16.42;48.53;98111.88;5068425;28;20223;-77
2023/03/29 11:47:33;;;;;;;3.10;1.60;;;;;;;16.42;48.59;98111.88;5083005;28;20205;-77